Time;durP1;ratioP1;P1;durP2;ratioP2;P2;SDS_P1;SDS_P2;PMS_P1;PMS_P2;Temp;Humidity;BMP_temperature;BMP_pressure;BME280_temperature;BME280_humidity;BME280_pressure;Samples;Min_cycle;Max_cycle;Signal;HPM_P1;HPM_P2
2024/01/18 00:00:03;;;;;;;18.87;11.60;;;1.30;99.90;;;;;;5093451;28;20265;-73
2024/01/18 00:02:29;;;;;;;27.63;13.30;;;1.30;99.90;;;;;;5074904;28;20535;-73
2024/01/18 00:04:54;;;;;;;26.30;13.43;;;1.40;99.90;;;;;;5092369;28;20503;-73
2024/01/18 00:07:22;;;;;;;21.80;11.17;;;1.40;99.90;;;;;;5075174;28;20640;-73
2024/01/18 00:09:47;;;;;;;19.70;11.67;;;1.30;99.90;;;;;;5093405;28;20240;-73
2024/01/18 00:12:13;;;;;;;19.10;11.40;;;1.30;99.90;;;;;;5093106;28;20451;-73
2024/01/18 00:14:38;;;;;;;20.77;12.17;;;1.30;99.90;;;;;;5092944;28;20189;-73
2024/01/18 00:17:04;;;;;;;15.60;9.87;;;1.30;99.90;;;;;;5092630;28;20170;-73
2024/01/18 00:19:29;;;;;;;19.60;10.77;;;1.30;99.90;;;;;;5074891;28;20178;-73
2024/01/18 00:21:55;;;;;;;20.03;12.20;;;1.20;99.90;;;;;;5074952;28;20165;-73
2024/01/18 00:24:20;;;;;;;25.53;12.23;;;1.20;99.90;;;;;;5093114;28;20201;-72
2024/01/18 00:26:46;;;;;;;14.83;11.20;;;1.20;99.90;;;;;;5092873;28;20177;-73
2024/01/18 00:29:11;;;;;;;21.97;11.60;;;1.20;99.90;;;;;;5092321;28;20165;-72
2024/01/18 00:31:37;;;;;;;23.00;12.23;;;1.10;99.90;;;;;;5074827;28;20193;-73
2024/01/18 00:34:02;;;;;;;19.57;11.27;;;1.10;99.90;;;;;;5074565;28;20231;-73
2024/01/18 00:36:28;;;;;;;16.93;11.00;;;1.10;99.90;;;;;;5074688;28;20596;-72
2024/01/18 00:38:53;;;;;;;15.17;9.50;;;1.10;99.90;;;;;;5092903;28;20174;-72
2024/01/18 00:41:20;;;;;;;23.00;11.77;;;1.10;99.90;;;;;;5092768;28;20188;-72
2024/01/18 00:43:47;;;;;;;18.47;10.03;;;1.00;99.90;;;;;;5074602;28;20197;-73
2024/01/18 00:46:12;;;;;;;18.23;11.23;;;1.00;99.90;;;;;;5092316;28;20404;-73
2024/01/18 00:48:38;;;;;;;20.60;10.83;;;1.00;99.90;;;;;;5092481;28;20411;-73
2024/01/18 00:51:03;;;;;;;18.50;10.63;;;1.00;99.90;;;;;;5092292;28;20201;-73
2024/01/18 00:53:29;;;;;;;14.30;10.20;;;1.00;99.90;;;;;;5073660;28;20180;-73
2024/01/18 00:55:55;;;;;;;20.87;11.20;;;1.00;99.90;;;;;;5091690;28;20161;-73
2024/01/18 00:58:20;;;;;;;17.40;11.40;;;1.00;99.90;;;;;;5091753;28;20399;-73
2024/01/18 01:00:47;;;;;;;16.77;11.20;;;1.00;99.90;;;;;;5091774;28;20558;-73
2024/01/18 01:03:12;;;;;;;20.63;10.87;;;1.00;99.90;;;;;;5091586;28;20161;-72
2024/01/18 01:05:38;;;;;;;18.10;11.33;;;1.00;99.90;;;;;;5091328;28;20428;-73
2024/01/18 01:08:04;;;;;;;19.60;11.33;;;1.10;99.90;;;;;;5091358;28;20280;-73
2024/01/18 01:10:29;;;;;;;27.17;11.70;;;1.10;99.90;;;;;;5073344;28;20161;-72
2024/01/18 01:12:55;;;;;;;18.57;11.40;;;1.10;99.90;;;;;;5073207;28;20201;-72
2024/01/18 01:15:20;;;;;;;30.53;12.57;;;1.10;99.90;;;;;;5091343;28;20415;-73
2024/01/18 01:17:46;;;;;;;19.67;12.33;;;1.10;99.90;;;;;;5091379;28;20162;-72
2024/01/18 01:20:12;;;;;;;18.03;10.23;;;1.10;99.90;;;;;;5091370;28;20192;-72
2024/01/18 01:22:38;;;;;;;15.90;10.90;;;1.10;99.90;;;;;;5073268;28;20173;-72
2024/01/18 01:25:04;;;;;;;17.73;12.07;;;1.10;99.90;;;;;;5091077;28;20426;-72
2024/01/18 01:27:29;;;;;;;22.57;11.07;;;1.10;99.90;;;;;;5091180;28;20162;-72
2024/01/18 01:29:55;;;;;;;24.00;10.47;;;1.10;99.90;;;;;;5091141;28;20838;-72
2024/01/18 01:32:20;;;;;;;18.17;10.50;;;1.10;99.90;;;;;;5090999;28;20556;-71
2024/01/18 01:34:46;;;;;;;14.23;10.73;;;1.10;99.90;;;;;;5090965;28;20263;-72
2024/01/18 01:37:13;;;;;;;16.13;10.13;;;1.10;99.90;;;;;;5090991;28;20165;-73
2024/01/18 01:39:39;;;;;;;20.10;11.80;;;1.10;99.90;;;;;;5090891;28;20161;-73
2024/01/18 01:42:05;;;;;;;19.27;11.23;;;1.10;99.90;;;;;;5071832;28;20404;-73
2024/01/18 01:44:30;;;;;;;19.20;11.50;;;1.10;99.90;;;;;;5072769;28;20193;-73
2024/01/18 01:46:56;;;;;;;13.47;9.73;;;1.00;99.90;;;;;;5072517;28;20165;-72
2024/01/18 01:49:22;;;;;;;22.27;12.97;;;1.00;99.90;;;;;;5090529;28;20177;-72
2024/01/18 01:51:49;;;;;;;17.77;11.07;;;1.00;99.90;;;;;;5053514;28;1071611;-73
2024/01/18 01:54:18;;;;;;;14.27;10.47;;;1.00;99.90;;;;;;5091684;28;20431;-72
2024/01/18 01:56:46;;;;;;;23.30;11.20;;;0.90;99.90;;;;;;5091665;28;21143;-72
2024/01/18 01:59:12;;;;;;;17.60;11.43;;;0.90;99.90;;;;;;5091746;28;20407;-72
2024/01/18 02:01:39;;;;;;;17.33;10.40;;;0.90;99.90;;;;;;5091641;28;20395;-72
2024/01/18 02:04:05;;;;;;;17.20;11.03;;;0.90;99.90;;;;;;5092129;28;20420;-72
2024/01/18 02:06:33;;;;;;;16.47;11.03;;;0.90;99.90;;;;;;5091351;28;20418;-72
2024/01/18 02:09:01;;;;;;;17.10;11.97;;;0.90;99.90;;;;;;5091813;28;20595;-73
2024/01/18 02:11:27;;;;;;;20.40;12.40;;;0.90;99.90;;;;;;5073569;28;20541;-72
2024/01/18 02:13:54;;;;;;;17.40;11.40;;;0.90;99.90;;;;;;5091873;28;20423;-73
2024/01/18 02:16:21;;;;;;;19.17;10.90;;;0.90;99.90;;;;;;5091395;28;20457;-73
2024/01/18 02:18:47;;;;;;;18.60;11.67;;;0.90;99.90;;;;;;5091614;28;20412;-73
2024/01/18 02:21:13;;;;;;;19.30;12.37;;;0.90;99.90;;;;;;5091440;28;20491;-73
2024/01/18 02:23:39;;;;;;;23.67;11.80;;;1.00;99.90;;;;;;5091416;28;20410;-72
2024/01/18 02:26:05;;;;;;;17.87;10.40;;;1.00;99.90;;;;;;5091207;28;20446;-73
2024/01/18 02:28:30;;;;;;;17.33;11.87;;;1.00;99.90;;;;;;5073333;28;20451;-73
2024/01/18 02:30:56;;;;;;;22.20;11.80;;;1.00;99.90;;;;;;5091438;28;20197;-73
2024/01/18 02:33:21;;;;;;;17.77;9.53;;;1.00;99.90;;;;;;5073362;28;20617;-72
2024/01/18 02:35:47;;;;;;;20.20;11.30;;;1.00;99.90;;;;;;5073047;28;20197;-73
2024/01/18 02:38:13;;;;;;;23.90;12.60;;;1.10;99.90;;;;;;5091384;28;20658;-73
2024/01/18 02:40:39;;;;;;;16.57;11.67;;;1.10;99.90;;;;;;5091288;28;20166;-72
2024/01/18 02:43:05;;;;;;;21.67;10.80;;;1.10;99.90;;;;;;5072918;28;20300;-73
2024/01/18 02:45:31;;;;;;;15.30;10.30;;;1.10;99.90;;;;;;5072788;28;20914;-72
2024/01/18 02:47:57;;;;;;;16.57;10.20;;;1.10;99.90;;;;;;5091193;28;20440;-73
2024/01/18 02:50:22;;;;;;;16.20;11.40;;;1.10;99.90;;;;;;5091358;28;20400;-72
2024/01/18 02:52:48;;;;;;;16.87;11.00;;;1.10;99.90;;;;;;5093237;28;20201;-72
2024/01/18 02:55:14;;;;;;;15.80;11.23;;;1.10;99.90;;;;;;5094312;28;20590;-72
2024/01/18 02:57:41;;;;;;;17.83;10.47;;;1.10;99.90;;;;;;5094607;28;20165;-72
2024/01/18 03:00:07;;;;;;;17.57;11.77;;;1.20;99.90;;;;;;5094746;28;20173;-72
2024/01/18 03:02:32;;;;;;;21.07;11.37;;;1.20;99.90;;;;;;5094596;28;20426;-72
2024/01/18 03:04:58;;;;;;;21.67;13.20;;;1.20;99.90;;;;;;5094505;28;20424;-72
2024/01/18 03:07:23;;;;;;;15.90;10.57;;;1.20;99.90;;;;;;5094512;28;20169;-71
2024/01/18 03:09:49;;;;;;;19.93;11.80;;;1.10;99.90;;;;;;5076168;28;20667;-72
2024/01/18 03:12:14;;;;;;;17.83;11.90;;;1.10;99.90;;;;;;5094195;28;20193;-72
2024/01/18 03:14:40;;;;;;;17.27;10.50;;;1.10;99.90;;;;;;5075988;28;20185;-72
2024/01/18 03:17:05;;;;;;;18.80;12.83;;;1.10;99.90;;;;;;5094439;28;20154;-72
2024/01/18 03:19:31;;;;;;;16.90;11.10;;;1.10;99.90;;;;;;5094496;28;20184;-72
2024/01/18 03:21:56;;;;;;;19.80;11.20;;;1.10;99.90;;;;;;5094436;28;20237;-73
2024/01/18 03:24:22;;;;;;;16.63;10.93;;;1.10;99.90;;;;;;5076136;28;20193;-72
2024/01/18 03:26:47;;;;;;;20.40;10.77;;;1.10;99.90;;;;;;5075884;28;20188;-73
2024/01/18 03:29:13;;;;;;;20.10;12.00;;;1.10;99.90;;;;;;5076038;28;20207;-73
2024/01/18 03:31:38;;;;;;;17.50;11.97;;;1.20;99.90;;;;;;5094157;28;20201;-73
2024/01/18 03:34:04;;;;;;;17.00;11.57;;;1.10;99.90;;;;;;5075922;28;20189;-73
2024/01/18 03:36:29;;;;;;;20.00;11.37;;;1.10;99.90;;;;;;5093921;28;20172;-72
2024/01/18 03:38:55;;;;;;;30.53;11.97;;;1.10;99.90;;;;;;5094072;28;20162;-72
2024/01/18 03:41:20;;;;;;;14.70;11.17;;;1.20;99.90;;;;;;5094054;28;20562;-72
2024/01/18 03:43:46;;;;;;;15.37;11.97;;;1.10;99.90;;;;;;5093775;28;20186;-73
2024/01/18 03:46:14;;;;;;;21.77;12.40;;;1.10;99.90;;;;;;5093705;28;20195;-73
2024/01/18 03:48:40;;;;;;;22.37;11.87;;;1.10;99.90;;;;;;5075676;28;20644;-73
2024/01/18 03:51:07;;;;;;;13.20;11.13;;;1.20;99.90;;;;;;5093634;28;20447;-73
2024/01/18 03:53:32;;;;;;;23.13;12.70;;;1.10;99.90;;;;;;5093644;28;20396;-73
2024/01/18 03:55:58;;;;;;;18.27;12.07;;;1.20;99.90;;;;;;5093427;28;20402;-73
2024/01/18 03:58:23;;;;;;;19.97;12.67;;;1.20;99.90;;;;;;5093578;28;20196;-73
2024/01/18 04:00:49;;;;;;;19.93;13.07;;;1.20;99.90;;;;;;5075460;28;20270;-73
2024/01/18 04:03:14;;;;;;;20.53;12.90;;;1.20;99.90;;;;;;5092732;28;20166;-73
2024/01/18 04:05:40;;;;;;;15.23;11.47;;;1.20;99.90;;;;;;5075309;28;20177;-73
2024/01/18 04:08:05;;;;;;;28.17;13.50;;;1.20;99.90;;;;;;5093422;28;20219;-73
2024/01/18 04:10:31;;;;;;;16.67;12.83;;;1.20;99.90;;;;;;5093447;28;20252;-73
2024/01/18 04:12:57;;;;;;;26.53;14.20;;;1.20;99.90;;;;;;5075106;28;20193;-73
2024/01/18 04:15:23;;;;;;;26.30;14.10;;;1.10;99.90;;;;;;5093114;28;20657;-72
2024/01/18 04:17:48;;;;;;;18.80;12.30;;;1.10;99.90;;;;;;5093188;28;20488;-73
2024/01/18 04:20:17;;;;;;;18.23;12.00;;;1.10;99.90;;;;;;5074689;28;20166;-73
2024/01/18 04:22:45;;;;;;;18.60;15.20;;;1.10;99.90;;;;;;5092545;28;20166;-73
2024/01/18 04:25:11;;;;;;;22.00;13.93;;;1.10;99.90;;;;;;5092868;28;20427;-73
2024/01/18 04:27:36;;;;;;;17.97;12.20;;;1.00;99.90;;;;;;5092959;28;20404;-73
2024/01/18 04:30:02;;;;;;;20.10;12.10;;;1.00;99.90;;;;;;5074984;28;20170;-72
2024/01/18 04:32:28;;;;;;;17.97;12.03;;;1.00;99.90;;;;;;5092910;28;20197;-72
2024/01/18 04:34:53;;;;;;;18.63;12.43;;;1.00;99.90;;;;;;5092791;28;20412;-72
2024/01/18 04:37:19;;;;;;;17.80;12.40;;;1.00;99.90;;;;;;5092839;28;20204;-72
2024/01/18 04:39:44;;;;;;;21.90;13.40;;;1.00;99.90;;;;;;5092969;28;20165;-72
2024/01/18 04:42:11;;;;;;;22.47;14.13;;;1.00;99.90;;;;;;5092798;28;20169;-72
2024/01/18 04:44:36;;;;;;;26.30;14.63;;;1.00;99.90;;;;;;5092594;28;20217;-72
2024/01/18 04:47:02;;;;;;;18.80;13.50;;;1.00;99.90;;;;;;5074558;28;20419;-72
2024/01/18 04:49:27;;;;;;;25.90;12.87;;;0.90;99.90;;;;;;5092853;28;20223;-72
2024/01/18 04:51:53;;;;;;;24.90;15.27;;;0.90;99.90;;;;;;5092166;28;20201;-72
2024/01/18 04:54:18;;;;;;;20.73;13.50;;;0.90;99.90;;;;;;5092454;28;20680;-72
2024/01/18 04:56:44;;;;;;;22.53;13.47;;;0.90;99.90;;;;;;5092308;28;20168;-72
2024/01/18 04:59:09;;;;;;;18.10;13.20;;;0.90;99.90;;;;;;5092522;28;20177;-72
2024/01/18 05:01:39;;;;;;;23.60;14.13;;;0.90;99.90;;;;;;5074461;28;20201;-70
2024/01/18 05:04:05;;;;;;;20.80;13.20;;;0.90;99.90;;;;;;5089824;28;20189;-70
2024/01/18 05:06:31;;;;;;;19.10;11.70;;;0.90;99.90;;;;;;5090839;28;20906;-71
2024/01/18 05:08:57;;;;;;;21.90;13.70;;;0.90;99.90;;;;;;5091467;28;20162;-71
2024/01/18 05:11:22;;;;;;;18.97;12.83;;;0.90;99.90;;;;;;5091232;28;20482;-71
2024/01/18 05:13:48;;;;;;;17.63;11.33;;;0.90;99.90;;;;;;5091655;28;20227;-71
2024/01/18 05:16:13;;;;;;;26.57;13.47;;;0.90;99.90;;;;;;5091338;28;20166;-71
2024/01/18 05:18:39;;;;;;;19.67;12.90;;;0.90;99.90;;;;;;5091196;28;20165;-71
2024/01/18 05:21:04;;;;;;;25.73;13.73;;;0.90;99.90;;;;;;5092046;28;20170;-71
2024/01/18 05:23:30;;;;;;;22.07;14.07;;;1.00;99.90;;;;;;5091871;28;20165;-71
2024/01/18 05:25:56;;;;;;;22.20;15.30;;;1.00;99.90;;;;;;5091705;28;20169;-72
2024/01/18 05:28:22;;;;;;;18.03;13.60;;;1.00;99.90;;;;;;5092048;28;20169;-71
2024/01/18 05:30:50;;;;;;;19.43;12.70;;;1.00;99.90;;;;;;5091911;28;20519;-70
2024/01/18 05:33:15;;;;;;;23.07;14.63;;;1.00;99.90;;;;;;5091932;28;20161;-70
2024/01/18 05:35:41;;;;;;;23.37;13.90;;;1.00;99.90;;;;;;5091726;28;21022;-70
2024/01/18 05:38:06;;;;;;;19.37;13.30;;;1.00;99.90;;;;;;5091443;28;20172;-70
2024/01/18 05:40:33;;;;;;;21.00;13.60;;;1.00;99.90;;;;;;5073626;28;20170;-70
2024/01/18 05:42:58;;;;;;;20.40;14.20;;;1.00;99.90;;;;;;5091836;28;20162;-70
2024/01/18 05:45:24;;;;;;;18.80;13.17;;;1.00;99.90;;;;;;5091171;28;20502;-70
2024/01/18 05:47:49;;;;;;;25.40;15.30;;;1.00;99.90;;;;;;5091262;28;20571;-70
2024/01/18 05:50:15;;;;;;;23.93;14.10;;;1.00;99.90;;;;;;5073058;28;20201;-70
2024/01/18 05:52:40;;;;;;;22.60;15.27;;;1.00;99.90;;;;;;5091013;28;20311;-71
2024/01/18 05:55:06;;;;;;;21.10;13.07;;;1.00;99.90;;;;;;5072880;28;20272;-71
2024/01/18 05:57:33;;;;;;;24.20;14.40;;;1.00;99.90;;;;;;5073259;28;20166;-70
2024/01/18 05:59:59;;;;;;;24.80;13.30;;;1.00;99.90;;;;;;5072944;28;20166;-71
2024/01/18 06:02:24;;;;;;;18.90;13.10;;;1.00;99.90;;;;;;5091354;28;20422;-70
2024/01/18 06:04:50;;;;;;;22.50;14.50;;;1.00;99.90;;;;;;5091535;28;20191;-70
2024/01/18 06:07:15;;;;;;;19.40;12.87;;;1.00;99.90;;;;;;5091604;28;20244;-70
2024/01/18 06:09:41;;;;;;;23.20;14.17;;;1.10;99.90;;;;;;5091567;28;20543;-70
2024/01/18 06:12:07;;;;;;;20.03;13.87;;;1.10;99.90;;;;;;5091254;28;20215;-70
2024/01/18 06:14:32;;;;;;;28.20;16.40;;;1.10;99.90;;;;;;5073254;28;20189;-71
2024/01/18 06:16:58;;;;;;;29.47;15.13;;;1.10;99.90;;;;;;5073223;28;20396;-71
2024/01/18 06:19:23;;;;;;;22.87;14.90;;;1.10;99.90;;;;;;5091115;28;20189;-71
2024/01/18 06:21:49;;;;;;;21.47;15.83;;;1.10;99.90;;;;;;5091458;28;20528;-71
2024/01/18 06:24:15;;;;;;;32.47;17.40;;;1.20;99.90;;;;;;5073111;28;20193;-70
2024/01/18 06:26:40;;;;;;;24.90;14.40;;;1.20;99.90;;;;;;5090602;28;20561;-71
2024/01/18 06:29:06;;;;;;;23.77;15.67;;;1.10;99.90;;;;;;5094642;28;20174;-71
2024/01/18 06:31:32;;;;;;;18.67;13.93;;;1.20;99.90;;;;;;5077116;28;20212;-71
2024/01/18 06:33:57;;;;;;;23.90;16.00;;;1.20;99.90;;;;;;5095230;28;20185;-70
2024/01/18 06:36:23;;;;;;;20.77;12.50;;;1.20;99.90;;;;;;5095078;28;20172;-70
2024/01/18 06:38:51;;;;;;;20.90;15.13;;;1.20;99.90;;;;;;5095195;28;20174;-70
2024/01/18 06:41:17;;;;;;;30.27;14.00;;;1.20;99.90;;;;;;5093601;28;20174;-70
2024/01/18 06:43:43;;;;;;;21.23;13.50;;;1.20;99.90;;;;;;5094948;28;20407;-71
2024/01/18 06:46:18;;;;;;;25.30;15.17;;;1.20;99.90;;;;;;5094167;28;20406;-70
2024/01/18 06:48:57;;;;;;;21.33;15.70;;;1.20;99.90;;;;;;5095034;28;20169;-71
2024/01/18 06:51:23;;;;;;;31.70;13.50;;;1.20;99.90;;;;;;5094832;28;20924;-70
2024/01/18 06:53:49;;;;;;;22.73;14.60;;;1.20;99.90;;;;;;5094926;28;20793;-71
2024/01/18 06:56:15;;;;;;;20.17;15.00;;;1.20;99.90;;;;;;5094790;28;20403;-71
2024/01/18 06:58:41;;;;;;;22.50;14.30;;;1.20;99.90;;;;;;5094870;28;20399;-71
2024/01/18 07:01:06;;;;;;;31.57;15.67;;;1.20;99.90;;;;;;5095002;28;20207;-71
2024/01/18 07:03:35;;;;;;;20.77;14.17;;;1.30;99.90;;;;;;5094771;28;20399;-71
2024/01/18 07:06:02;;;;;;;25.83;14.50;;;1.30;99.90;;;;;;5094544;28;20253;-71
2024/01/18 07:08:28;;;;;;;24.40;15.00;;;1.30;99.90;;;;;;5094635;28;20396;-71
2024/01/18 07:10:53;;;;;;;23.73;16.67;;;1.30;99.90;;;;;;5076416;28;20533;-72
2024/01/18 07:13:19;;;;;;;26.10;14.93;;;1.20;99.90;;;;;;5094688;28;20166;-71
2024/01/18 07:15:44;;;;;;;27.87;15.77;;;1.20;99.90;;;;;;5094197;28;20193;-71
2024/01/18 07:18:10;;;;;;;23.03;14.83;;;1.20;99.90;;;;;;5094474;28;20164;-71
2024/01/18 07:20:35;;;;;;;20.63;14.50;;;1.20;99.90;;;;;;5076262;28;20632;-71
2024/01/18 07:23:01;;;;;;;19.77;14.07;;;1.10;99.90;;;;;;5094370;28;20170;-71
2024/01/18 07:25:26;;;;;;;22.20;14.07;;;1.10;99.90;;;;;;5094081;28;20235;-71
2024/01/18 07:27:52;;;;;;;18.40;12.93;;;1.00;99.90;;;;;;5094324;28;20541;-71
2024/01/18 07:30:17;;;;;;;26.70;15.83;;;0.90;99.90;;;;;;5094338;28;20173;-71
2024/01/18 07:32:44;;;;;;;20.80;14.43;;;0.90;99.90;;;;;;5094103;28;20768;-71
2024/01/18 07:35:10;;;;;;;22.60;14.83;;;0.90;99.90;;;;;;5093928;28;20640;-71
2024/01/18 07:37:36;;;;;;;36.27;15.67;;;0.90;99.90;;;;;;5093854;28;20407;-71
2024/01/18 07:40:02;;;;;;;18.60;13.30;;;0.80;99.90;;;;;;5076156;28;20399;-71
2024/01/18 07:42:27;;;;;;;26.53;15.30;;;0.80;99.90;;;;;;5094040;28;20162;-71
2024/01/18 07:44:53;;;;;;;19.23;14.30;;;0.80;99.90;;;;;;5093764;28;20509;-71
2024/01/18 07:47:20;;;;;;;23.73;14.40;;;0.70;99.90;;;;;;5093799;28;20223;-71
2024/01/18 07:49:46;;;;;;;17.03;11.80;;;0.70;99.90;;;;;;5075841;28;20165;-71
2024/01/18 07:52:14;;;;;;;29.67;16.83;;;0.70;99.90;;;;;;5075443;28;21003;-71
2024/01/18 07:54:40;;;;;;;24.60;14.40;;;0.70;99.90;;;;;;5075440;28;20432;-71
2024/01/18 07:57:06;;;;;;;24.03;14.83;;;0.70;99.90;;;;;;5093697;28;20453;-71
2024/01/18 07:59:32;;;;;;;21.03;14.07;;;0.70;99.90;;;;;;5093711;28;20410;-72
2024/01/18 08:01:57;;;;;;;18.57;13.93;;;0.70;99.90;;;;;;5075520;28;20185;-71
2024/01/18 08:04:23;;;;;;;27.20;16.37;;;0.70;99.90;;;;;;5093290;28;20676;-71
2024/01/18 08:06:48;;;;;;;27.83;15.80;;;0.60;99.90;;;;;;5075205;28;20169;-71
2024/01/18 08:09:15;;;;;;;24.37;14.50;;;0.60;99.90;;;;;;5093515;28;20166;-70
2024/01/18 08:11:41;;;;;;;19.17;15.13;;;0.60;99.90;;;;;;5093371;28;20190;-71
2024/01/18 08:14:06;;;;;;;20.93;14.77;;;0.50;99.90;;;;;;5093374;28;20427;-70
2024/01/18 08:16:32;;;;;;;22.80;14.83;;;0.50;99.90;;;;;;5093104;28;20158;-71
2024/01/18 08:18:58;;;;;;;22.23;14.10;;;0.50;99.90;;;;;;5093340;28;20621;-71
2024/01/18 08:21:23;;;;;;;20.37;14.80;;;0.40;99.90;;;;;;5093259;28;20173;-70
2024/01/18 08:23:49;;;;;;;32.87;16.50;;;0.40;99.90;;;;;;5093125;28;20668;-70
2024/01/18 08:26:16;;;;;;;38.40;17.30;;;0.30;99.90;;;;;;5074839;28;20181;-71
2024/01/18 08:28:43;;;;;;;23.10;17.20;;;0.30;99.90;;;;;;5075335;28;20702;-71
2024/01/18 08:31:08;;;;;;;23.47;15.40;;;0.20;99.90;;;;;;5093042;28;20404;-71
2024/01/18 08:33:34;;;;;;;25.67;16.40;;;0.20;99.90;;;;;;5074807;28;20416;-70
2024/01/18 08:36:00;;;;;;;24.60;14.30;;;0.10;99.90;;;;;;5092749;28;20571;-71
2024/01/18 08:38:26;;;;;;;24.40;13.17;;;0.10;99.90;;;;;;5092999;28;20172;-71
2024/01/18 08:40:52;;;;;;;21.07;15.67;;;0.00;99.90;;;;;;5092942;28;20399;-71
2024/01/18 08:43:22;;;;;;;33.73;15.10;;;0.00;99.90;;;;;;5074702;28;20511;-70
2024/01/18 08:45:47;;;;;;;21.07;14.27;;;0.00;99.90;;;;;;5092532;28;20188;-71
2024/01/18 08:48:13;;;;;;;29.17;14.23;;;0.00;99.90;;;;;;5074694;28;20420;-71
2024/01/18 08:50:39;;;;;;;19.70;13.90;;;-0.10;99.90;;;;;;5092150;28;20655;-70
2024/01/18 08:53:06;;;;;;;21.03;13.73;;;-0.10;99.90;;;;;;5092581;28;20546;-70
2024/01/18 08:55:32;;;;;;;32.90;19.57;;;0.10;99.90;;;;;;5092211;28;20209;-72
2024/01/18 08:57:57;;;;;;;27.17;17.90;;;1.30;99.90;;;;;;5074220;28;20443;-72
2024/01/18 09:00:23;;;;;;;40.40;21.77;;;3.20;99.90;;;;;;5092416;28;20169;-72
2024/01/18 09:02:48;;;;;;;33.50;20.97;;;5.00;99.90;;;;;;5092596;28;20592;-72
2024/01/18 09:05:14;;;;;;;36.60;20.27;;;7.00;99.90;;;;;;5092031;28;20212;-71
2024/01/18 09:07:40;;;;;;;31.30;16.37;;;8.40;99.90;;;;;;5092235;28;20253;-71
2024/01/18 09:10:08;;;;;;;24.77;15.20;;;9.90;99.90;;;;;;5092325;28;20632;-71
2024/01/18 09:12:34;;;;;;;16.30;12.83;;;11.30;99.90;;;;;;5092112;28;20447;-71
2024/01/18 09:15:00;;;;;;;15.00;12.10;;;12.40;99.90;;;;;;5073745;28;20427;-71
2024/01/18 09:17:25;;;;;;;15.20;12.37;;;12.90;98.20;;;;;;5092178;28;20236;-71
2024/01/18 09:19:51;;;;;;;13.93;12.43;;;13.60;90.60;;;;;;5092166;28;20165;-71
2024/01/18 09:22:16;;;;;;;19.07;13.47;;;14.20;74.10;;;;;;5092152;28;20174;-72
2024/01/18 09:24:42;;;;;;;23.40;13.67;;;14.60;63.50;;;;;;5091792;28;20370;-72
2024/01/18 09:27:09;;;;;;;19.23;13.00;;;14.80;58.50;;;;;;5073837;28;20200;-72
2024/01/18 09:29:36;;;;;;;19.37;13.50;;;15.20;55.50;;;;;;5092075;28;20408;-72
2024/01/18 09:32:02;;;;;;;17.53;11.47;;;15.30;53.40;;;;;;5091942;28;20810;-72
2024/01/18 09:34:28;;;;;;;19.53;13.50;;;15.30;52.10;;;;;;5091846;28;20506;-71
2024/01/18 09:36:53;;;;;;;18.07;10.67;;;15.30;50.00;;;;;;5091836;28;20997;-71
2024/01/18 09:39:19;;;;;;;11.93;10.37;;;15.40;48.90;;;;;;5091890;28;20525;-72
2024/01/18 09:41:55;;;;;;;13.00;11.60;;;15.40;48.60;;;;;;5091882;28;20211;-71
2024/01/18 09:44:30;;;;;;;16.23;12.63;;;15.60;47.80;;;;;;5073625;28;20718;-71
2024/01/18 09:46:57;;;;;;;19.53;12.33;;;16.10;48.00;;;;;;5091674;28;20489;-72
2024/01/18 09:49:23;;;;;;;18.43;12.73;;;16.70;47.70;;;;;;5091701;28;20426;-71
2024/01/18 09:51:50;;;;;;;15.30;13.00;;;17.10;45.90;;;;;;5091532;28;20820;-71
2024/01/18 09:54:17;;;;;;;13.07;11.37;;;17.00;43.60;;;;;;5091604;28;20426;-72
2024/01/18 09:56:49;;;;;;;14.40;11.40;;;17.30;43.60;;;;;;5073614;28;20938;-71
2024/01/18 09:59:16;;;;;;;14.13;12.60;;;17.60;43.40;;;;;;5091455;28;20398;-71
2024/01/18 10:01:42;;;;;;;19.40;13.30;;;17.70;42.60;;;;;;5092296;28;20504;-69
2024/01/18 10:04:10;;;;;;;19.80;13.20;;;17.60;41.60;;;;;;5094002;28;20435;-69
2024/01/18 10:06:38;;;;;;;15.43;10.73;;;17.60;41.80;;;;;;5094130;28;20300;-68
2024/01/18 10:09:05;;;;;;;13.97;11.03;;;17.80;41.90;;;;;;5094946;28;20491;-68
2024/01/18 10:11:31;;;;;;;17.80;12.17;;;17.90;42.20;;;;;;5094553;28;20455;-68
2024/01/18 10:13:57;;;;;;;12.97;11.00;;;18.40;42.10;;;;;;5094275;28;20427;-68
2024/01/18 10:16:32;;;;;;;12.93;11.00;;;19.10;42.30;;;;;;5094706;28;20180;-68
2024/01/18 10:19:02;;;;;;;13.70;10.50;;;19.20;39.70;;;;;;5101491;28;20401;-68
2024/01/18 10:21:29;;;;;;;15.10;10.50;;;19.20;39.20;;;;;;5114851;28;20398;-69
2024/01/18 10:23:55;;;;;;;15.53;9.80;;;19.60;39.20;;;;;;5114766;28;21004;-68
2024/01/18 10:26:24;;;;;;;14.80;10.97;;;20.40;39.70;;;;;;5115658;28;20406;-68
2024/01/18 10:28:50;;;;;;;11.90;10.67;;;21.40;39.00;;;;;;5107116;28;20418;-68
2024/01/18 10:31:16;;;;;;;10.43;9.43;;;22.40;38.10;;;;;;5077046;28;20447;-68
2024/01/18 10:33:41;;;;;;;10.50;8.97;;;23.50;36.90;;;;;;5095196;28;20169;-65
2024/01/18 10:36:07;;;;;;;14.30;9.27;;;23.80;35.10;;;;;;5094082;28;20418;-66
2024/01/18 10:38:32;;;;;;;12.17;10.97;;;24.00;34.00;;;;;;5095110;28;20157;-67
2024/01/18 10:40:59;;;;;;;16.60;10.77;;;24.00;32.90;;;;;;5095182;28;20232;-68
2024/01/18 10:43:32;;;;;;;11.80;10.20;;;24.10;32.80;;;;;;5094956;28;20174;-68
2024/01/18 10:45:58;;;;;;;14.27;10.10;;;24.50;32.70;;;;;;5094807;28;20406;-68
2024/01/18 10:48:25;;;;;;;14.07;10.10;;;25.10;32.30;;;;;;5094829;28;20411;-68
2024/01/18 10:50:56;;;;;;;10.23;8.00;;;25.30;31.10;;;;;;5094805;28;20414;-69
2024/01/18 10:53:24;;;;;;;8.97;8.17;;;25.30;30.50;;;;;;5095005;28;20457;-67
2024/01/18 10:55:50;;;;;;;14.40;8.60;;;25.30;30.80;;;;;;5076503;28;20432;-68
2024/01/18 10:58:17;;;;;;;11.57;9.80;;;25.30;31.00;;;;;;5094976;28;20407;-68
2024/01/18 11:00:42;;;;;;;11.70;9.93;;;26.00;30.90;;;;;;5094900;28;20479;-68
2024/01/18 11:03:08;;;;;;;9.60;8.70;;;27.10;30.40;;;;;;5094680;28;20517;-67
2024/01/18 11:05:35;;;;;;;11.87;7.77;;;28.20;30.10;;;;;;5094468;28;20570;-68
2024/01/18 11:08:03;;;;;;;10.20;8.67;;;29.20;29.10;;;;;;5094759;28;20404;-68
2024/01/18 11:10:31;;;;;;;10.97;8.13;;;29.80;28.10;;;;;;5094716;28;20440;-68
2024/01/18 11:12:57;;;;;;;8.90;7.37;;;30.30;28.10;;;;;;5093675;28;20451;-68
2024/01/18 11:15:23;;;;;;;10.00;8.67;;;30.60;27.50;;;;;;5076120;28;20469;-67
2024/01/18 11:17:54;;;;;;;10.53;8.50;;;30.80;26.20;;;;;;5094456;28;20160;-68
2024/01/18 11:20:20;;;;;;;10.80;9.57;;;30.90;26.00;;;;;;5094511;28;20568;-67
2024/01/18 11:22:46;;;;;;;9.70;8.70;;;31.00;25.60;;;;;;5094450;28;20415;-67
2024/01/18 11:25:20;;;;;;;10.60;8.97;;;30.80;24.80;;;;;;5093914;28;20237;-68
2024/01/18 11:27:45;;;;;;;11.70;7.80;;;30.40;24.70;;;;;;5094316;28;20204;-67
2024/01/18 11:30:13;;;;;;;7.93;7.10;;;30.10;24.90;;;;;;5094221;28;20404;-68
2024/01/18 11:32:39;;;;;;;8.63;7.73;;;30.20;25.20;;;;;;5094135;28;20251;-68
2024/01/18 11:35:11;;;;;;;6.20;5.60;;;30.40;25.00;;;;;;5093975;28;20447;-68
2024/01/18 11:37:37;;;;;;;7.30;6.70;;;31.00;25.10;;;;;;5093974;28;20771;-69
2024/01/18 11:40:06;;;;;;;5.77;5.23;;;31.60;25.20;;;;;;5094110;28;20392;-68
2024/01/18 11:42:33;;;;;;;8.30;6.70;;;32.10;24.90;;;;;;5094158;28;20170;-68
2024/01/18 11:45:19;;;;;;;7.80;7.00;;;32.70;24.60;;;;;;5093713;28;21068;-68
2024/01/18 11:47:46;;;;;;;6.87;6.27;;;33.30;24.20;;;;;;5093891;28;20396;-68
2024/01/18 11:50:12;;;;;;;8.30;7.47;;;33.60;23.70;;;;;;5093729;28;20407;-68
2024/01/18 11:52:42;;;;;;;7.17;6.50;;;33.70;22.60;;;;;;5075577;28;20462;-68
2024/01/18 11:55:11;;;;;;;7.87;7.07;;;33.70;22.40;;;;;;5093557;28;20181;-68
2024/01/18 11:57:37;;;;;;;7.27;6.57;;;33.40;22.00;;;;;;5093630;28;20910;-68
2024/01/18 12:00:04;;;;;;;9.40;8.60;;;33.10;22.10;;;;;;5093652;28;20921;-69
2024/01/18 12:02:30;;;;;;;9.87;6.77;;;33.20;22.20;;;;;;5093614;28;20411;-69
2024/01/18 12:04:56;;;;;;;12.03;7.03;;;33.10;22.20;;;;;;5093442;28;20420;-68
2024/01/18 12:07:23;;;;;;;7.90;6.90;;;33.00;22.00;;;;;;5093585;28;20170;-69
2024/01/18 12:09:48;;;;;;;7.70;6.70;;;33.30;22.10;;;;;;5093502;28;20400;-69
2024/01/18 12:12:15;;;;;;;8.00;7.20;;;33.10;21.70;;;;;;5093440;28;20838;-68
2024/01/18 12:14:42;;;;;;;8.13;7.30;;;33.10;21.70;;;;;;5075367;28;20259;-68
2024/01/18 12:17:09;;;;;;;9.50;7.20;;;33.40;22.00;;;;;;5093431;28;20790;-69
2024/01/18 12:19:38;;;;;;;7.43;6.73;;;33.70;21.90;;;;;;5093356;28;20474;-68
2024/01/18 12:22:12;;;;;;;7.50;6.80;;;33.60;21.50;;;;;;5093282;28;20400;-68
2024/01/18 12:24:39;;;;;;;8.10;7.30;;;33.30;21.20;;;;;;5092231;28;20499;-68
2024/01/18 12:27:05;;;;;;;9.90;8.23;;;33.40;21.40;;;;;;5093099;28;20500;-68
2024/01/18 12:29:32;;;;;;;6.97;6.33;;;33.70;21.50;;;;;;5093140;28;20482;-68